ESST/TYF METAR and TAF weather

Enter ICAO airport designator
Station Type Date Time Source
ESST METAR 2018/01/22 19:50 UTC NOAA

ESST 221950Z AUTO 33003KT 9999 OVC014/// M05/M06 Q1015


Station Type Date Time Source
ESST Decoded METAR 2018/01/22 19:50 UTC NOAA

Station name not available
Jan 22, 2018 - 02:50 PM EST / 2018.01.22 1950 UTC
Wind: from the NNW (330 degrees) at 3 MPH (3 KT):0
Visibility: greater than 7 mile(s):0
Sky conditions: overcast
Temperature: 23 F (-5 C)
Dew Point: 21 F (-6 C)
Relative Humidity: 92%
Pressure (altimeter): 29.97 in. Hg (1015 hPa)
ob: ESST 221950Z AUTO 33003KT 9999 OVC014/// M05/M06 Q1015
cycle: 20

Station Type Date Time Source
ESST TAF UTC NOAA

Error!


Example: see airport list